^^
Saratoga-Weather Station Historical Data
Daily Summary for April 21, 2020 Units:  English    Metric   Both
Daily Weekly Monthly Yearly Custom
  High: Low: Average:
Temperature: 46.9 °F 36.3 °F 41.2 °F
Dew Point: 39.6 °F 34.2 °F 36.1 °F
Humidity: 93% 65% 82%
Wind Speed: 14.1mph 0mph 3mph
Wind Gust: 19mph - -
Wind- - WSW
Pressure: 30.4 in 30.2 in -
Precipitation: 0 in    
Historical Graphs
 
 
Tabular Data for April 21, 2020
Time Temperature Dew Point Pressure Wind Wind Speed Wind Gust Humidity Rainfall Rate (Hourly) solar
00:00 41.9 °F 37.9 °F 30.2 in WNW 8.9 mph 9 mph 86% 0 in 0 W/m2
00:05 41.9 °F 37.9 °F 30.2 in WSW 4.9 mph 11 mph 86% 0 in 0 W/m2
00:10 41.9 °F 37.8 °F 30.2 in WNW 10.1 mph 11 mph 85% 0 in 0 W/m2
00:15 41.9 °F 37.8 °F 30.2 in West 2 mph 3 mph 85% 0 in 0 W/m2
00:20 41.7 °F 37.8 °F 30.2 in WNW 4 mph 10 mph 86% 0 in 0 W/m2
00:25 41.7 °F 37.8 °F 30.2 in West 4 mph 11 mph 86% 0 in 0 W/m2
00:30 41.5 °F 37.9 °F 30.2 in NW 4.9 mph 8 mph 87% 0 in 0 W/m2
00:35 41.5 °F 37.9 °F 30.2 in WNW 8.1 mph 10 mph 87% 0 in 0 W/m2
00:40 41.5 °F 37.6 °F 30.2 in West 8.9 mph 9 mph 86% 0 in 0 W/m2
00:45 41.5 °F 37.6 °F 30.2 in WNW 14.1 mph 14 mph 86% 0 in 0 W/m2
00:50 41.5 °F 37.4 °F 30.2 in WNW 6.9 mph 9 mph 85% 0 in 0 W/m2
00:55 41.5 °F 37.4 °F 30.2 in WSW 6.9 mph 11 mph 85% 0 in 0 W/m2
01:00 41.5 °F 37.4 °F 30.2 in WSW 4.9 mph 9 mph 85% 0 in 0 W/m2
01:05 41.4 °F 36.9 °F 30.2 in West 4 mph 10 mph 84% 0 in 0 W/m2
01:10 41.4 °F 36.9 °F 30.2 in SW 4 mph 11 mph 84% 0 in 0 W/m2
01:15 41.4 °F 36.9 °F 30.2 in SW 4.9 mph 10 mph 84% 0 in 0 W/m2
01:20 41.2 °F 36.7 °F 30.2 in SW 4 mph 11 mph 84% 0 in 0 W/m2
01:25 41.2 °F 36.7 °F 30.2 in WNW 8.9 mph 19 mph 84% 0 in 0 W/m2
01:30 41.2 °F 36.7 °F 30.2 in WNW 6.9 mph 10 mph 84% 0 in 0 W/m2
01:35 41.2 °F 36.7 °F 30.2 in SW 8.9 mph 19 mph 84% 0 in 0 W/m2
01:40 41.2 °F 36.7 °F 30.2 in West 6.9 mph 13 mph 84% 0 in 0 W/m2
01:45 41 °F 36.9 °F 30.2 in WNW 8.1 mph 11 mph 85% 0 in 0 W/m2
01:50 40.8 °F 36.3 °F 30.2 in WSW 0.9 mph 8 mph 84% 0 in 0 W/m2
01:55 40.8 °F 36.7 °F 30.2 in West 8.1 mph 9 mph 85% 0 in 0 W/m2
02:00 40.5 °F 36.3 °F 30.2 in West 2.9 mph 6 mph 85% 0 in 0 W/m2
02:05 40.3 °F 36.1 °F 30.2 in WSW 2.9 mph 12 mph 85% 0 in 0 W/m2
02:10 39.9 °F 36.1 °F 30.2 in West 2.9 mph 7 mph 86% 0 in 0 W/m2
02:15 39.7 °F 36 °F 30.2 in West 4 mph 12 mph 86% 0 in 0 W/m2
02:20 39.7 °F 36 °F 30.3 in WSW 6.9 mph 12 mph 86% 0 in 0 W/m2
02:25 39.7 °F 36 °F 30.3 in West 10.1 mph 11 mph 86% 0 in 0 W/m2
02:30 39.6 °F 35.8 °F 30.3 in WSW 2.9 mph 7 mph 86% 0 in 0 W/m2
02:35 39.4 °F 35.8 °F 30.3 in West 6.9 mph 10 mph 87% 0 in 0 W/m2
02:40 39.2 °F 35.6 °F 30.3 in West 8.1 mph 11 mph 87% 0 in 0 W/m2
02:45 39.2 °F 35.6 °F 30.3 in WSW 4 mph 11 mph 87% 0 in 0 W/m2
02:50 39 °F 35.4 °F 30.3 in West 6 mph 9 mph 87% 0 in 0 W/m2
02:55 39 °F 35.4 °F 30.3 in West 4 mph 15 mph 87% 0 in 0 W/m2
03:01 38.8 °F 35.2 °F 30.3 in WNW 2 mph 5 mph 87% 0 in 0 W/m2
03:06 38.8 °F 35.2 °F 30.3 in West 2 mph 15 mph 87% 0 in 0 W/m2
03:11 38.7 °F 35.4 °F 30.3 in WSW 2.9 mph 7 mph 88% 0 in 0 W/m2
03:16 38.7 °F 35.4 °F 30.3 in SW 4 mph 9 mph 88% 0 in 0 W/m2
03:21 38.7 °F 35.8 °F 30.3 in West 8.1 mph 8 mph 89% 0 in 0 W/m2
03:26 38.5 °F 35.6 °F 30.3 in NW 2 mph 9 mph 89% 0 in 0 W/m2
03:31 38.5 °F 35.6 °F 30.3 in West 4 mph 6 mph 89% 0 in 0 W/m2
03:36 38.5 °F 35.8 °F 30.3 in West 0.9 mph 8 mph 90% 0 in 0 W/m2
03:41 38.3 °F 35.6 °F 30.3 in NW 4.9 mph 5 mph 90% 0 in 0 W/m2
03:46 38.1 °F 35.4 °F 30.3 in Calm   2 mph 90% 0 in 0 W/m2
03:51 38.1 °F 35.4 °F 30.3 in West 2 mph 3 mph 90% 0 in 0 W/m2
03:56 37.9 °F 35.2 °F 30.3 in NW 4 mph 8 mph 90% 0 in 0 W/m2
04:01 37.9 °F 35.2 °F 30.3 in SW 2 mph 3 mph 90% 0 in 0 W/m2
04:06 37.8 °F 35.1 °F 30.3 in West 2.9 mph 8 mph 90% 0 in 0 W/m2
04:11 37.8 °F 35.4 °F 30.3 in SW 4.9 mph 7 mph 91% 0 in 0 W/m2
04:16 37.8 °F 35.4 °F 30.3 in West 2 mph 4 mph 91% 0 in 0 W/m2
04:21 37.8 °F 35.4 °F 30.3 in WSW 0.9 mph 3 mph 91% 0 in 0 W/m2
04:26 37.6 °F 35.2 °F 30.3 in West 2 mph 3 mph 91% 0 in 0 W/m2
04:31 37.4 °F 35.1 °F 30.3 in WSW 0.9 mph 5 mph 91% 0 in 0 W/m2
04:36 37.2 °F 34.9 °F 30.3 in Calm   2 mph 91% 0 in 0 W/m2
04:41 37.2 °F 34.9 °F 30.3 in Calm   5 mph 91% 0 in 0 W/m2
04:46 37 °F 34.7 °F 30.3 in West 2 mph 7 mph 91% 0 in 0 W/m2
04:51 37 °F 34.7 °F 30.3 in West 4 mph 9 mph 91% 0 in 0 W/m2
04:56 37.2 °F 34.9 °F 30.3 in WSW 2.9 mph 9 mph 91% 0 in 0 W/m2
05:01 37.2 °F 34.9 °F 30.3 in West 0.9 mph 4 mph 91% 0 in 0 W/m2
05:06 37 °F 34.7 °F 30.3 in West 2.9 mph 7 mph 91% 0 in 0 W/m2
05:11 37 °F 34.7 °F 30.3 in West 4 mph 5 mph 91% 0 in 0 W/m2
05:16 37 °F 34.7 °F 30.3 in West 6 mph 11 mph 91% 0 in 0 W/m2
05:21 37 °F 34.7 °F 30.3 in WNW 4 mph 8 mph 91% 0 in 0 W/m2
05:26 37 °F 34.7 °F 30.3 in West 8.1 mph 10 mph 91% 0 in 0 W/m2
05:32 36.9 °F 34.5 °F 30.3 in WNW 2.9 mph 7 mph 91% 0 in 0 W/m2
05:37 36.9 °F 34.5 °F 30.3 in WNW 2.9 mph 3 mph 91% 0 in 0 W/m2
05:42 36.9 °F 34.5 °F 30.3 in West 2 mph 4 mph 91% 0 in 0 W/m2
05:47 36.9 °F 34.5 °F 30.3 in West 2.9 mph 4 mph 91% 0 in 0 W/m2
05:52 36.9 °F 34.5 °F 30.3 in WSW 2 mph 8 mph 91% 0 in 0 W/m2
05:57 36.9 °F 34.5 °F 30.3 in West 2.9 mph 5 mph 91% 0 in 0 W/m2
06:02 36.9 °F 34.5 °F 30.3 in West 6 mph 7 mph 91% 0 in 0 W/m2
06:07 36.7 °F 34.3 °F 30.3 in West 6.9 mph 9 mph 91% 0 in 0 W/m2
06:12 36.7 °F 34.3 °F 30.3 in West 4 mph 8 mph 91% 0 in 0 W/m2
06:17 36.7 °F 34.5 °F 30.3 in West 8.1 mph 9 mph 92% 0 in 0 W/m2
06:22 36.7 °F 34.5 °F 30.3 in West 4 mph 11 mph 92% 0 in 0 W/m2
06:27 36.7 °F 34.5 °F 30.3 in West 8.1 mph 12 mph 92% 0 in 0 W/m2
06:32 36.7 °F 34.5 °F 30.3 in WSW 8.1 mph 10 mph 92% 0 in 0 W/m2
06:37 36.7 °F 34.5 °F 30.3 in WSW 4.9 mph 10 mph 92% 0 in 0 W/m2
06:43 36.5 °F 34.3 °F 30.3 in West 2 mph 8 mph 92% 0 in 0 W/m2
06:48 36.5 °F 34.3 °F 30.3 in North 2 mph 11 mph 92% 0 in 0 W/m2
06:53 36.5 °F 34.3 °F 30.3 in WSW 4.9 mph 10 mph 92% 0 in 0 W/m2
06:58 36.5 °F 34.3 °F 30.3 in WSW 4.9 mph 8 mph 92% 0 in 0 W/m2
07:03 36.5 °F 34.3 °F 30.4 in West 2 mph 8 mph 92% 0 in 0 W/m2
07:08 36.3 °F 34.2 °F 30.4 in West 6 mph 9 mph 92% 0 in 0 W/m2
07:13 36.3 °F 34.5 °F 30.4 in WNW 2 mph 9 mph 93% 0 in 0 W/m2
07:18 36.3 °F 34.5 °F 30.4 in West 8.1 mph 10 mph 93% 0 in 0 W/m2
07:23 36.3 °F 34.2 °F 30.4 in WNW 4.9 mph 8 mph 92% 0 in 0 W/m2
07:28 36.3 °F 34.5 °F 30.4 in WNW 4 mph 6 mph 93% 0 in 0 W/m2
07:33 36.3 °F 34.5 °F 30.4 in SW 6 mph 7 mph 93% 0 in 0 W/m2
07:38 36.3 °F 34.5 °F 30.4 in WSW 2.9 mph 7 mph 93% 0 in 5 W/m2
07:43 36.3 °F 34.5 °F 30.4 in WSW 2.9 mph 9 mph 93% 0 in 11 W/m2
07:48 36.3 °F 34.5 °F 30.4 in WSW 6.9 mph 8 mph 93% 0 in 14 W/m2
07:54 36.3 °F 34.5 °F 30.4 in WSW 4.9 mph 9 mph 93% 0 in 18 W/m2
07:59 36.3 °F 34.5 °F 30.4 in West 4 mph 14 mph 93% 0 in 18 W/m2
08:04 36.3 °F 34.5 °F 30.4 in WSW 6.9 mph 9 mph 93% 0 in 23 W/m2
08:09 36.3 °F 34.5 °F 30.4 in WSW 4 mph 10 mph 93% 0 in 32 W/m2
08:14 36.5 °F 34.7 °F 30.4 in WNW 4 mph 4 mph 93% 0 in 37 W/m2
08:19 36.5 °F 34.7 °F 30.4 in WNW 4.9 mph 7 mph 93% 0 in 46 W/m2
08:24 36.7 °F 34.9 °F 30.4 in West 2.9 mph 9 mph 93% 0 in 60 W/m2
08:29 36.9 °F 35.1 °F 30.4 in SW 4 mph 9 mph 93% 0 in 70 W/m2
08:34 36.9 °F 35.1 °F 30.4 in WNW 2 mph 9 mph 93% 0 in 88 W/m2
08:39 37 °F 35.2 °F 30.4 in WNW 2 mph 4 mph 93% 0 in 116 W/m2
08:44 37 °F 34.9 °F 30.4 in West 6.9 mph 9 mph 92% 0 in 98 W/m2
08:49 37.2 °F 35.1 °F 30.4 in West 4 mph 10 mph 92% 0 in 93 W/m2
08:54 37.2 °F 35.1 °F 30.4 in West 4 mph 4 mph 92% 0 in 81 W/m2
08:59 37.4 °F 35.2 °F 30.4 in WNW 2.9 mph 4 mph 92% 0 in 83 W/m2
09:04 37.6 °F 35.4 °F 30.4 in West 6 mph 6 mph 92% 0 in 91 W/m2
09:09 37.6 °F 35.4 °F 30.4 in West 6.9 mph 8 mph 92% 0 in 90 W/m2
09:14 37.6 °F 35.4 °F 30.4 in West 2 mph 10 mph 92% 0 in 83 W/m2
09:19 37.6 °F 35.4 °F 30.4 in WNW 2 mph 9 mph 92% 0 in 81 W/m2
09:24 37.6 °F 35.4 °F 30.4 in WNW 6 mph 9 mph 92% 0 in 95 W/m2
09:29 37.6 °F 35.4 °F 30.4 in West 0.9 mph 3 mph 92% 0 in 120 W/m2
09:34 37.6 °F 35.4 °F 30.4 in WSW 2 mph 4 mph 92% 0 in 155 W/m2
09:39 37.8 °F 35.6 °F 30.4 in WSW 0.9 mph 4 mph 92% 0 in 111 W/m2
09:44 37.9 °F 35.6 °F 30.4 in West 2.9 mph 5 mph 91% 0 in 116 W/m2
09:49 37.9 °F 35.8 °F 30.4 in Calm   6 mph 92% 0 in 171 W/m2
09:54 38.3 °F 36.1 °F 30.4 in West 2.9 mph 3 mph 92% 0 in 225 W/m2
09:59 38.7 °F 36.3 °F 30.4 in Calm   3 mph 91% 0 in 236 W/m2
10:04 38.8 °F 36.5 °F 30.4 in NW 2 mph 3 mph 91% 0 in 243 W/m2
10:09 39.4 °F 36.7 °F 30.4 in West 4 mph 8 mph 90% 0 in 267 W/m2
10:14 39.6 °F 36.9 °F 30.4 in WSW 6 mph 10 mph 90% 0 in 230 W/m2
10:19 39.9 °F 36.9 °F 30.4 in West 2.9 mph 3 mph 89% 0 in 246 W/m2
10:24 40.3 °F 37.2 °F 30.4 in WNW 2.9 mph 10 mph 89% 0 in 267 W/m2
10:29 40.5 °F 37.2 °F 30.4 in West 2 mph 10 mph 88% 0 in 264 W/m2
10:34 40.5 °F 37.2 °F 30.4 in WNW 2 mph 7 mph 88% 0 in 206 W/m2
10:39 40.8 °F 37.6 °F 30.4 in NW 2.9 mph 10 mph 88% 0 in 211 W/m2
10:44 41 °F 37.4 °F 30.4 in West 2.9 mph 9 mph 87% 0 in 171 W/m2
10:49 41.2 °F 37.4 °F 30.4 in WSW 2.9 mph 9 mph 86% 0 in 155 W/m2
10:54 41.2 °F 37.4 °F 30.4 in NNW 6 mph 6 mph 86% 0 in 190 W/m2
10:59 41.4 °F 37.6 °F 30.4 in WNW 2 mph 9 mph 86% 0 in 265 W/m2
11:04 41.5 °F 37.6 °F 30.4 in SW 2 mph 5 mph 86% 0 in 278 W/m2
11:09 41.7 °F 37.8 °F 30.4 in West 2.9 mph 6 mph 86% 0 in 373 W/m2
11:14 42.1 °F 37.9 °F 30.4 in WNW 2 mph 9 mph 85% 0 in 318 W/m2
11:19 42.4 °F 38.3 °F 30.4 in West 2.9 mph 11 mph 85% 0 in 272 W/m2
11:24 42.6 °F 38.1 °F 30.4 in WSW 2.9 mph 8 mph 84% 0 in 285 W/m2
11:29 42.8 °F 37.9 °F 30.4 in NW 2.9 mph 3 mph 83% 0 in 148 W/m2
11:34 43.2 °F 38.3 °F 30.4 in West 2.9 mph 8 mph 83% 0 in 171 W/m2
11:39 43.3 °F 38.5 °F 30.4 in WNW 4 mph 4 mph 83% 0 in 127 W/m2
11:44 43.5 °F 38.5 °F 30.4 in WNW 4.9 mph 10 mph 82% 0 in 123 W/m2
11:50 43.5 °F 38.5 °F 30.4 in WNW 4 mph 8 mph 82% 0 in 163 W/m2
11:55 43.3 °F 37.9 °F 30.4 in West 0.9 mph 3 mph 81% 0 in 107 W/m2
12:00 43.3 °F 37.9 °F 30.4 in WSW 2 mph 8 mph 81% 0 in 118 W/m2
12:05 43.5 °F 38.5 °F 30.4 in SE 0.9 mph 2 mph 82% 0 in 276 W/m2
12:10 43.9 °F 38.5 °F 30.4 in SSW 4 mph 6 mph 81% 0 in 497 W/m2
12:15 44.6 °F 39.2 °F 30.4 in West 2 mph 6 mph 81% 0 in 548 W/m2
12:20 45.3 °F 39.6 °F 30.4 in WNW 4.9 mph 6 mph 80% 0 in 571 W/m2
12:25 45.7 °F 39.6 °F 30.4 in WNW 4 mph 6 mph 79% 0 in 269 W/m2
12:30 45.9 °F 39 °F 30.4 in WNW 0.9 mph 5 mph 77% 0 in 181 W/m2
12:35 45.7 °F 38.8 °F 30.4 in West 2 mph 3 mph 77% 0 in 160 W/m2
12:40 45.7 °F 38.8 °F 30.4 in WSW 6.9 mph 10 mph 77% 0 in 192 W/m2
12:45 45.7 °F 38.5 °F 30.4 in WNW 2.9 mph 4 mph 76% 0 in 125 W/m2
12:50 45.3 °F 37.9 °F 30.4 in West 2 mph 6 mph 75% 0 in 172 W/m2
12:55 45.3 °F 37.9 °F 30.4 in WNW 2 mph 3 mph 75% 0 in 137 W/m2
13:00 45.3 °F 37.9 °F 30.4 in WSW 2 mph 4 mph 75% 0 in 171 W/m2
13:05 45.3 °F 37.9 °F 30.4 in NNW 4.9 mph 9 mph 75% 0 in 322 W/m2
13:10 45.9 °F 38.3 °F 30.4 in SSW 2 mph 5 mph 75% 0 in 352 W/m2
13:15 46 °F 38.3 °F 30.4 in SSE 2.9 mph 9 mph 74% 0 in 311 W/m2
13:20 46.2 °F 38.5 °F 30.4 in NW 6 mph 6 mph 74% 0 in 301 W/m2
13:25 46.6 °F 38.5 °F 30.4 in Calm   5 mph 73% 0 in 267 W/m2
13:30 46.6 °F 38.1 °F 30.4 in WSW 4 mph 7 mph 72% 0 in 216 W/m2
13:35 46.2 °F 37.8 °F 30.4 in West 2.9 mph 8 mph 72% 0 in 200 W/m2
13:40 46.2 °F 37.4 °F 30.4 in West 2.9 mph 7 mph 71% 0 in 213 W/m2
13:45 46.4 °F 37.6 °F 30.4 in WSW 4 mph 9 mph 71% 0 in 220 W/m2
13:50 46.4 °F 37.2 °F 30.4 in North 0.9 mph 11 mph 70% 0 in 239 W/m2
13:55 46.6 °F 37.4 °F 30.4 in WNW 2.9 mph 8 mph 70% 0 in 302 W/m2
14:00 46.6 °F 37.8 °F 30.4 in WNW 4.9 mph 7 mph 71% 0 in 211 W/m2
14:05 46.8 °F 36.7 °F 30.4 in WNW 6.9 mph 12 mph 68% 0 in 209 W/m2
14:10 46.8 °F 36.7 °F 30.4 in WNW 4 mph 13 mph 68% 0 in 246 W/m2
14:15 46.8 °F 37.6 °F 30.4 in SSW 4 mph 5 mph 70% 0 in 213 W/m2
14:20 46.6 °F 37 °F 30.4 in WNW 2 mph 11 mph 69% 0 in 179 W/m2
14:25 46.8 °F 37.2 °F 30.4 in WSW 2.9 mph 10 mph 69% 0 in 183 W/m2
14:30 46.6 °F 36.5 °F 30.4 in West 8.1 mph 11 mph 68% 0 in 214 W/m2
14:35 46.6 °F 36.5 °F 30.4 in West 4 mph 9 mph 68% 0 in 229 W/m2
14:40 46.6 °F 36.5 °F 30.4 in NW 4.9 mph 11 mph 68% 0 in 200 W/m2
14:45 46.6 °F 36.1 °F 30.4 in WNW 8.9 mph 12 mph 67% 0 in 165 W/m2
14:50 46.6 °F 36.5 °F 30.4 in WNW 8.9 mph 10 mph 68% 0 in 160 W/m2
14:55 46.6 °F 37 °F 30.4 in West 6.9 mph 9 mph 69% 0 in 179 W/m2
15:00 46.4 °F 36.9 °F 30.4 in WNW 2 mph 10 mph 69% 0 in 163 W/m2
15:05 46.4 °F 36.5 °F 30.4 in West 4 mph 8 mph 68% 0 in 162 W/m2
15:10 46.6 °F 37 °F 30.4 in NW 2 mph 6 mph 69% 0 in 176 W/m2
15:15 46.6 °F 36.5 °F 30.4 in WSW 4 mph 10 mph 68% 0 in 135 W/m2
15:20 46.8 °F 36.7 °F 30.4 in WNW 2.9 mph 5 mph 68% 0 in 125 W/m2
15:25 46.8 °F 36.3 °F 30.4 in WNW 2.9 mph 8 mph 67% 0 in 121 W/m2
15:30 46.8 °F 36.3 °F 30.4 in NW 0.9 mph 4 mph 67% 0 in 134 W/m2
15:35 46.8 °F 36 °F 30.4 in WNW 2.9 mph 9 mph 66% 0 in 142 W/m2
15:40 46.8 °F 36 °F 30.4 in Calm   6 mph 66% 0 in 142 W/m2
15:45 46.9 °F 36.1 °F 30.4 in West 2 mph 7 mph 66% 0 in 125 W/m2
15:50 46.8 °F 35.6 °F 30.4 in WNW 4 mph 10 mph 65% 0 in 134 W/m2
15:55 46.8 °F 36 °F 30.4 in WNW 2 mph 6 mph 66% 0 in 135 W/m2
16:00 46.8 °F 36 °F 30.4 in WSW 0.9 mph 10 mph 66% 0 in 135 W/m2
16:05 46.8 °F 36 °F 30.4 in NNW 2.9 mph 8 mph 66% 0 in 128 W/m2
16:10 46.8 °F 36 °F 30.4 in WNW 4 mph 10 mph 66% 0 in 135 W/m2
16:15 46.8 °F 35.6 °F 30.4 in NW 2 mph 3 mph 65% 0 in 123 W/m2
16:20 46.9 °F 36.1 °F 30.4 in SSW 2.9 mph 5 mph 66% 0 in 120 W/m2
16:25 46.9 °F 35.8 °F 30.4 in NW 2.9 mph 8 mph 65% 0 in 128 W/m2
16:30 46.9 °F 35.8 °F 30.4 in North 0.9 mph 3 mph 65% 0 in 111 W/m2
16:35 46.9 °F 36.1 °F 30.4 in NW 4 mph 7 mph 66% 0 in 90 W/m2
16:40 46.8 °F 36.3 °F 30.4 in WNW 2 mph 3 mph 67% 0 in 86 W/m2
16:45 46.8 °F 36 °F 30.4 in Calm   6 mph 66% 0 in 77 W/m2
16:51 46.6 °F 35.8 °F 30.4 in WNW 4 mph 8 mph 66% 0 in 69 W/m2
16:56 46.6 °F 35.8 °F 30.4 in NW 2 mph 7 mph 66% 0 in 65 W/m2
17:01 46.6 °F 36.1 °F 30.4 in NNW 2.9 mph 8 mph 67% 0 in 56 W/m2
17:06 46.4 °F 36 °F 30.4 in West 2 mph 5 mph 67% 0 in 53 W/m2
17:11 46.2 °F 36 °F 30.4 in WNW 2.9 mph 6 mph 67% 0 in 51 W/m2
17:16 46.2 °F 36.3 °F 30.4 in SW 2.9 mph 4 mph 68% 0 in 46 W/m2
17:21 46 °F 36.1 °F 30.4 in NW 2.9 mph 4 mph 68% 0 in 40 W/m2
17:26 46 °F 36.1 °F 30.4 in West 8.1 mph 8 mph 68% 0 in 33 W/m2
17:31 45.9 °F 36 °F 30.4 in West 4 mph 8 mph 68% 0 in 30 W/m2
17:36 45.9 °F 36 °F 30.4 in Calm   2 mph 68% 0 in 25 W/m2
17:41 45.7 °F 36.1 °F 30.4 in Calm   7 mph 69% 0 in 21 W/m2
17:46 45.5 °F 36 °F 30.4 in WSW 2 mph 6 mph 69% 0 in 16 W/m2
17:51 45.3 °F 36.1 °F 30.4 in WNW 0.9 mph 1 mph 70% 0 in 9 W/m2
17:56 45.1 °F 36 °F 30.4 in WSW 4 mph 4 mph 70% 0 in 5 W/m2
18:01 45 °F 36.1 °F 30.4 in Calm   2 mph 71% 0 in 0 W/m2
18:06 44.8 °F 36 °F 30.4 in West 0.9 mph 4 mph 71% 0 in 0 W/m2
18:11 44.6 °F 36.1 °F 30.4 in Calm   8 mph 72% 0 in 0 W/m2
18:16 44.4 °F 36.3 °F 30.4 in SE 0.9 mph 1 mph 73% 0 in 0 W/m2
18:21 44.1 °F 36 °F 30.4 in Calm   1 mph 73% 0 in 0 W/m2
18:26 43.9 °F 36.1 °F 30.4 in Calm   1 mph 74% 0 in 0 W/m2
18:31 43.7 °F 36 °F 30.4 in SE 0.9 mph 1 mph 74% 0 in 0 W/m2
18:36 43.3 °F 36 °F 30.4 in Calm   1 mph 75% 0 in 0 W/m2
18:41 43.2 °F 36.1 °F 30.4 in Calm     76% 0 in 0 W/m2
18:46 42.6 °F 36 °F 30.4 in SSW 2 mph 2 mph 77% 0 in 0 W/m2
18:51 42.6 °F 36 °F 30.4 in Calm   1 mph 77% 0 in 0 W/m2
18:56 42.4 °F 36.1 °F 30.4 in Calm   1 mph 78% 0 in 0 W/m2
19:01 42.3 °F 36.1 °F 30.4 in Calm     79% 0 in 0 W/m2
19:06 41.9 °F 35.8 °F 30.4 in Calm   1 mph 79% 0 in 0 W/m2
19:11 41.7 °F 36 °F 30.4 in ENE 0.9 mph 1 mph 80% 0 in 0 W/m2
19:16 41.5 °F 35.8 °F 30.4 in Calm   1 mph 80% 0 in 0 W/m2
19:21 41.5 °F 36.1 °F 30.4 in ESE 2.9 mph 4 mph 81% 0 in 0 W/m2
19:26 41.5 °F 36.1 °F 30.4 in Calm   1 mph 81% 0 in 0 W/m2
19:31 41.5 °F 36.1 °F 30.4 in SSE 0.9 mph 2 mph 81% 0 in 0 W/m2
19:36 41.4 °F 36 °F 30.4 in SSE 2 mph 2 mph 81% 0 in 0 W/m2
19:41 41.4 °F 36.3 °F 30.4 in Calm   1 mph 82% 0 in 0 W/m2
19:46 41.2 °F 36.1 °F 30.4 in SE 0.9 mph 1 mph 82% 0 in 0 W/m2
19:51 41.2 °F 36.1 °F 30.4 in ESE 0.9 mph 2 mph 82% 0 in 0 W/m2
19:56 41 °F 36 °F 30.4 in ESE 0.9 mph 1 mph 82% 0 in 0 W/m2
20:01 40.8 °F 36.1 °F 30.4 in NE 0.9 mph 1 mph 83% 0 in 0 W/m2
20:06 40.8 °F 36.1 °F 30.4 in ENE 0.9 mph 1 mph 83% 0 in 0 W/m2
20:11 40.8 °F 36.1 °F 30.4 in Calm     83% 0 in 0 W/m2
20:16 40.6 °F 36 °F 30.4 in Calm   2 mph 83% 0 in 0 W/m2
20:21 40.6 °F 36.1 °F 30.4 in East 0.9 mph 2 mph 84% 0 in 0 W/m2
20:26 40.5 °F 36 °F 30.4 in ESE 0.9 mph 1 mph 84% 0 in 0 W/m2
20:31 40.5 °F 36 °F 30.4 in ESE 0.9 mph 2 mph 84% 0 in 0 W/m2
20:36 40.5 °F 36.3 °F 30.4 in East 0.9 mph 1 mph 85% 0 in 0 W/m2
20:41 40.5 °F 36.3 °F 30.4 in ESE 2.9 mph 3 mph 85% 0 in 0 W/m2
20:46 40.6 °F 36.5 °F 30.4 in Calm   1 mph 85% 0 in 0 W/m2
20:51 40.8 °F 36.3 °F 30.4 in Calm   1 mph 84% 0 in 0 W/m2
20:56 41.2 °F 36.5 °F 30.4 in NE 0.9 mph 1 mph 83% 0 in 0 W/m2
21:01 41.4 °F 36.5 °F 30.4 in SSW 2.9 mph 3 mph 83% 0 in 0 W/m2
21:06 41.4 °F 36.5 °F 30.4 in West 0.9 mph 1 mph 83% 0 in 0 W/m2
21:11 41.5 °F 36.5 °F 30.4 in Calm   2 mph 82% 0 in 0 W/m2
21:16 41.5 °F 36.5 °F 30.4 in Calm   2 mph 82% 0 in 0 W/m2
21:21 41.4 °F 36.3 °F 30.4 in ENE 0.9 mph 2 mph 82% 0 in 0 W/m2
21:26 41.5 °F 36.5 °F 30.4 in ENE 0.9 mph 1 mph 82% 0 in 0 W/m2
21:31 41.2 °F 36.1 °F 30.4 in ENE 0.9 mph 1 mph 82% 0 in 0 W/m2
21:36 41.2 °F 36.5 °F 30.4 in Calm   1 mph 83% 0 in 0 W/m2
21:41 41.2 °F 36.5 °F 30.4 in NNE 0.9 mph 3 mph 83% 0 in 0 W/m2
21:46 41.4 °F 36.5 °F 30.4 in NNW 0.9 mph 2 mph 83% 0 in 0 W/m2
21:51 41.4 °F 36.3 °F 30.4 in WNW 2.9 mph 5 mph 82% 0 in 0 W/m2
21:56 41.5 °F 36.5 °F 30.4 in WSW 0.9 mph 2 mph 82% 0 in 0 W/m2
22:01 41.7 °F 36.7 °F 30.4 in NW 0.9 mph 3 mph 82% 0 in 0 W/m2
22:06 41.7 °F 36.7 °F 30.4 in Calm   2 mph 82% 0 in 0 W/m2
22:11 41.7 °F 36.3 °F 30.4 in ENE 0.9 mph 2 mph 81% 0 in 0 W/m2
22:16 41.5 °F 36.1 °F 30.4 in East 2 mph 2 mph 81% 0 in 0 W/m2
22:21 41.4 °F 36 °F 30.4 in ESE 0.9 mph 1 mph 81% 0 in 0 W/m2
22:26 41.2 °F 36.1 °F 30.4 in NNW 0.9 mph 1 mph 82% 0 in 0 W/m2
22:31 41 °F 36 °F 30.4 in Calm     82% 0 in 0 W/m2
22:36 40.6 °F 35.6 °F 30.4 in NNW 0.9 mph 2 mph 82% 0 in 0 W/m2
22:42 40.5 °F 35.8 °F 30.4 in Calm   1 mph 83% 0 in 0 W/m2
22:47 40.3 °F 35.8 °F 30.4 in Calm   1 mph 84% 0 in 0 W/m2
22:52 40.3 °F 35.8 °F 30.4 in Calm   3 mph 84% 0 in 0 W/m2
22:57 40.3 °F 35.8 °F 30.4 in Calm   2 mph 84% 0 in 0 W/m2
23:02 40.1 °F 35.6 °F 30.4 in Calm   4 mph 84% 0 in 0 W/m2
23:07 39.7 °F 35.2 °F 30.4 in NNE 2 mph 2 mph 84% 0 in 0 W/m2
23:12 39.7 °F 35.6 °F 30.4 in ESE 0.9 mph 2 mph 85% 0 in 0 W/m2
23:17 39.6 °F 35.1 °F 30.4 in ESE 2 mph 2 mph 84% 0 in 0 W/m2
23:22 39.2 °F 35.1 °F 30.4 in ESE 0.9 mph 2 mph 85% 0 in 0 W/m2
23:27 39 °F 35.2 °F 30.4 in ENE 2 mph 2 mph 86% 0 in 0 W/m2
23:32 39 °F 35.2 °F 30.4 in East 2 mph 3 mph 86% 0 in 0 W/m2
23:37 38.7 °F 34.9 °F 30.4 in ESE 2 mph 2 mph 86% 0 in 0 W/m2
23:42 38.5 °F 34.7 °F 30.4 in ESE 0.9 mph 2 mph 86% 0 in 0 W/m2
23:47 38.5 °F 34.9 °F 30.4 in ESE 0.9 mph 2 mph 87% 0 in 0 W/m2
23:52 38.3 °F 34.7 °F 30.4 in Calm     87% 0 in 0 W/m2
23:57 38.3 °F 35.1 °F 30.4 in ESE 0.9 mph 4 mph 88% 0 in 0 W/m2
Juneau County Weather
Compliments of Weather Underground - 4 mb